sensor_id;sensor_type;location;lat;lon;timestamp;pressure;altitude;pressure_sealevel;temperature;humidity
20942;BME280;10630;53.734;10.282;2022-11-15T00:01:50;100765.50;;;13.85;nan
20942;BME280;10630;53.734;10.282;2022-11-15T00:04:24;100775.88;;;13.58;nan
20942;BME280;10630;53.734;10.282;2022-11-15T00:06:51;100766.41;;;13.92;nan
20942;BME280;10630;53.734;10.282;2022-11-15T00:09:18;100762.66;;;13.87;nan
20942;BME280;10630;53.734;10.282;2022-11-15T00:11:44;100759.06;;;13.50;nan
20942;BME280;10630;53.734;10.282;2022-11-15T00:14:11;100758.59;;;13.46;nan
20942;BME280;10630;53.734;10.282;2022-11-15T00:16:38;100752.72;;;13.66;nan
20942;BME280;10630;53.734;10.282;2022-11-15T00:19:05;100756.09;;;13.74;nan
20942;BME280;10630;53.734;10.282;2022-11-15T00:21:32;100759.53;;;13.68;nan
20942;BME280;10630;53.734;10.282;2022-11-15T00:24:01;100758.19;;;12.89;nan
20942;BME280;10630;53.734;10.282;2022-11-15T00:26:28;100746.50;;;13.20;nan
20942;BME280;10630;53.734;10.282;2022-11-15T00:28:55;100735.09;;;13.26;nan
20942;BME280;10630;53.734;10.282;2022-11-15T00:31:22;100745.50;;;13.36;nan
20942;BME280;10630;53.734;10.282;2022-11-15T00:33:49;100748.66;;;13.55;nan
20942;BME280;10630;53.734;10.282;2022-11-15T00:36:16;100750.72;;;13.29;nan
20942;BME280;10630;53.734;10.282;2022-11-15T00:38:43;100746.25;;;13.75;nan
20942;BME280;10630;53.734;10.282;2022-11-15T00:41:10;100743.94;;;13.72;nan
20942;BME280;10630;53.734;10.282;2022-11-15T00:43:37;100746.41;;;13.73;nan
20942;BME280;10630;53.734;10.282;2022-11-15T00:46:06;100749.28;;;13.72;nan
20942;BME280;10630;53.734;10.282;2022-11-15T00:48:35;100748.94;;;13.75;nan
20942;BME280;10630;53.734;10.282;2022-11-15T00:51:03;100756.84;;;13.53;nan
20942;BME280;10630;53.734;10.282;2022-11-15T00:53:30;100753.72;;;13.65;nan
20942;BME280;10630;53.734;10.282;2022-11-15T00:55:57;100753.53;;;13.66;nan
20942;BME280;10630;53.734;10.282;2022-11-15T00:58:24;100748.38;;;13.65;nan
20942;BME280;10630;53.734;10.282;2022-11-15T01:00:51;100751.16;;;13.56;nan
20942;BME280;10630;53.734;10.282;2022-11-15T01:03:18;100757.25;;;13.50;nan
20942;BME280;10630;53.734;10.282;2022-11-15T01:05:44;100743.22;;;13.48;nan
20942;BME280;10630;53.734;10.282;2022-11-15T01:08:12;100733.97;;;13.21;nan
20942;BME280;10630;53.734;10.282;2022-11-15T01:13:21;100739.91;;;13.46;nan
20942;BME280;10630;53.734;10.282;2022-11-15T01:15:48;100735.09;;;13.26;nan
20942;BME280;10630;53.734;10.282;2022-11-15T01:18:16;100733.63;;;13.39;nan
20942;BME280;10630;53.734;10.282;2022-11-15T01:20:45;100722.44;;;13.35;nan
20942;BME280;10630;53.734;10.282;2022-11-15T01:23:12;100727.72;;;13.43;nan
20942;BME280;10630;53.734;10.282;2022-11-15T01:25:39;100721.00;;;13.48;nan
20942;BME280;10630;53.734;10.282;2022-11-15T01:28:06;100719.81;;;13.50;nan
20942;BME280;10630;53.734;10.282;2022-11-15T01:30:33;100721.38;;;13.44;nan
20942;BME280;10630;53.734;10.282;2022-11-15T01:32:59;100718.81;;;13.51;nan
20942;BME280;10630;53.734;10.282;2022-11-15T01:35:26;100713.56;;;13.43;nan
20942;BME280;10630;53.734;10.282;2022-11-15T01:37:56;100720.47;;;13.52;nan
20942;BME280;10630;53.734;10.282;2022-11-15T01:40:23;100709.03;;;13.43;nan
20942;BME280;10630;53.734;10.282;2022-11-15T01:42:56;100712.97;;;13.33;nan
20942;BME280;10630;53.734;10.282;2022-11-15T01:45:23;100713.72;;;13.26;nan
20942;BME280;10630;53.734;10.282;2022-11-15T01:47:53;100714.09;;;13.38;nan
20942;BME280;10630;53.734;10.282;2022-11-15T01:50:33;100714.81;;;13.32;nan
20942;BME280;10630;53.734;10.282;2022-11-15T01:53:00;100707.34;;;13.42;nan
20942;BME280;10630;53.734;10.282;2022-11-15T01:55:27;100704.75;;;13.34;nan
20942;BME280;10630;53.734;10.282;2022-11-15T01:57:59;100697.94;;;13.32;nan
20942;BME280;10630;53.734;10.282;2022-11-15T02:00:28;100702.28;;;13.33;nan
20942;BME280;10630;53.734;10.282;2022-11-15T02:03:02;100699.44;;;13.49;nan
20942;BME280;10630;53.734;10.282;2022-11-15T02:05:30;100697.88;;;13.40;nan
20942;BME280;10630;53.734;10.282;2022-11-15T02:07:57;100693.34;;;13.25;nan
20942;BME280;10630;53.734;10.282;2022-11-15T02:10:24;100689.56;;;13.20;nan
20942;BME280;10630;53.734;10.282;2022-11-15T02:12:52;100684.47;;;12.80;nan
20942;BME280;10630;53.734;10.282;2022-11-15T02:18:26;100676.13;;;13.13;nan
20942;BME280;10630;53.734;10.282;2022-11-15T02:21:14;100667.56;;;13.18;nan
20942;BME280;10630;53.734;10.282;2022-11-15T02:29:07;100679.81;;;13.12;nan
20942;BME280;10630;53.734;10.282;2022-11-15T02:34:34;100682.63;;;13.10;nan
20942;BME280;10630;53.734;10.282;2022-11-15T02:37:15;100678.13;;;13.11;nan
20942;BME280;10630;53.734;10.282;2022-11-15T02:40:07;100683.28;;;13.12;nan
20942;BME280;10630;53.734;10.282;2022-11-15T02:42:39;100681.06;;;13.16;nan
20942;BME280;10630;53.734;10.282;2022-11-15T02:45:36;100672.22;;;13.01;nan
20942;BME280;10630;53.734;10.282;2022-11-15T02:48:12;100680.25;;;13.01;nan
20942;BME280;10630;53.734;10.282;2022-11-15T02:50:40;100678.88;;;13.05;nan
20942;BME280;10630;53.734;10.282;2022-11-15T02:53:13;100669.66;;;12.92;nan
20942;BME280;10630;53.734;10.282;2022-11-15T02:55:44;100668.09;;;12.98;nan
20942;BME280;10630;53.734;10.282;2022-11-15T03:01:04;100672.03;;;12.87;nan
20942;BME280;10630;53.734;10.282;2022-11-15T03:06:26;100679.78;;;12.82;nan
20942;BME280;10630;53.734;10.282;2022-11-15T03:11:44;100673.97;;;12.78;nan
20942;BME280;10630;53.734;10.282;2022-11-15T03:14:51;100671.00;;;12.73;nan
20942;BME280;10630;53.734;10.282;2022-11-15T03:22:06;100673.94;;;12.48;nan
20942;BME280;10630;53.734;10.282;2022-11-15T03:24:36;100674.75;;;12.49;nan
20942;BME280;10630;53.734;10.282;2022-11-15T03:27:05;100672.41;;;12.69;nan
20942;BME280;10630;53.734;10.282;2022-11-15T03:29:34;100664.66;;;12.74;nan
20942;BME280;10630;53.734;10.282;2022-11-15T03:32:22;100674.53;;;12.74;nan
20942;BME280;10630;53.734;10.282;2022-11-15T03:34:58;100679.69;;;12.75;nan
20942;BME280;10630;53.734;10.282;2022-11-15T03:40:13;100676.25;;;12.66;nan
20942;BME280;10630;53.734;10.282;2022-11-15T03:45:13;100666.59;;;12.65;nan
20942;BME280;10630;53.734;10.282;2022-11-15T03:47:43;100671.75;;;12.67;nan
20942;BME280;10630;53.734;10.282;2022-11-15T03:50:13;100669.25;;;12.65;nan
20942;BME280;10630;53.734;10.282;2022-11-15T03:52:41;100662.53;;;12.70;nan
20942;BME280;10630;53.734;10.282;2022-11-15T03:55:11;100670.00;;;12.59;nan
20942;BME280;10630;53.734;10.282;2022-11-15T03:57:39;100659.31;;;12.59;nan
20942;BME280;10630;53.734;10.282;2022-11-15T04:00:23;100663.88;;;12.50;nan
20942;BME280;10630;53.734;10.282;2022-11-15T04:02:50;100666.16;;;12.39;nan
20942;BME280;10630;53.734;10.282;2022-11-15T04:05:17;100658.06;;;12.47;nan
20942;BME280;10630;53.734;10.282;2022-11-15T04:07:44;100656.88;;;12.49;nan
20942;BME280;10630;53.734;10.282;2022-11-15T04:10:14;100652.09;;;12.45;nan
20942;BME280;10630;53.734;10.282;2022-11-15T04:12:42;100657.78;;;12.42;nan
20942;BME280;10630;53.734;10.282;2022-11-15T04:15:11;100665.53;;;12.37;nan
20942;BME280;10630;53.734;10.282;2022-11-15T04:20:31;100663.06;;;12.50;nan
20942;BME280;10630;53.734;10.282;2022-11-15T04:23:21;100667.66;;;12.56;nan
20942;BME280;10630;53.734;10.282;2022-11-15T04:26:08;100662.34;;;12.56;nan
20942;BME280;10630;53.734;10.282;2022-11-15T04:28:37;100667.00;;;12.54;nan
20942;BME280;10630;53.734;10.282;2022-11-15T04:31:22;100655.41;;;12.47;nan
20942;BME280;10630;53.734;10.282;2022-11-15T04:33:49;100658.00;;;12.55;nan
20942;BME280;10630;53.734;10.282;2022-11-15T04:36:16;100659.81;;;12.40;nan
20942;BME280;10630;53.734;10.282;2022-11-15T04:39:02;100663.78;;;12.44;nan
20942;BME280;10630;53.734;10.282;2022-11-15T04:41:28;100660.47;;;12.42;nan
20942;BME280;10630;53.734;10.282;2022-11-15T04:43:56;100661.91;;;12.29;nan
20942;BME280;10630;53.734;10.282;2022-11-15T04:46:23;100674.63;;;12.42;nan
20942;BME280;10630;53.734;10.282;2022-11-15T04:48:51;100664.47;;;12.38;nan
20942;BME280;10630;53.734;10.282;2022-11-15T04:51:23;100671.78;;;12.44;nan
20942;BME280;10630;53.734;10.282;2022-11-15T04:53:50;100661.44;;;12.64;nan
20942;BME280;10630;53.734;10.282;2022-11-15T04:56:17;100662.88;;;12.51;nan
20942;BME280;10630;53.734;10.282;2022-11-15T04:58:43;100668.41;;;12.50;nan
20942;BME280;10630;53.734;10.282;2022-11-15T05:01:11;100665.47;;;12.60;nan
20942;BME280;10630;53.734;10.282;2022-11-15T05:03:41;100665.47;;;12.60;nan
20942;BME280;10630;53.734;10.282;2022-11-15T05:06:29;100663.53;;;12.69;nan
20942;BME280;10630;53.734;10.282;2022-11-15T05:09:06;100668.78;;;12.62;nan
20942;BME280;10630;53.734;10.282;2022-11-15T05:11:35;100661.97;;;12.59;nan
20942;BME280;10630;53.734;10.282;2022-11-15T05:14:04;100663.66;;;12.60;nan
20942;BME280;10630;53.734;10.282;2022-11-15T05:16:32;100665.84;;;12.72;nan
20942;BME280;10630;53.734;10.282;2022-11-15T05:19:00;100663.84;;;12.74;nan
20942;BME280;10630;53.734;10.282;2022-11-15T05:21:28;100660.91;;;12.83;nan
20942;BME280;10630;53.734;10.282;2022-11-15T05:23:55;100654.91;;;12.66;nan
20942;BME280;10630;53.734;10.282;2022-11-15T05:26:24;100658.84;;;12.71;nan
20942;BME280;10630;53.734;10.282;2022-11-15T05:28:57;100654.75;;;12.83;nan
20942;BME280;10630;53.734;10.282;2022-11-15T05:31:25;100661.38;;;12.87;nan
20942;BME280;10630;53.734;10.282;2022-11-15T05:33:52;100658.16;;;12.92;nan
20942;BME280;10630;53.734;10.282;2022-11-15T05:36:31;100655.19;;;12.87;nan
20942;BME280;10630;53.734;10.282;2022-11-15T05:38:59;100659.63;;;12.94;nan
20942;BME280;10630;53.734;10.282;2022-11-15T05:41:27;100663.78;;;13.12;nan
20942;BME280;10630;53.734;10.282;2022-11-15T05:43:56;100653.63;;;13.07;nan
20942;BME280;10630;53.734;10.282;2022-11-15T05:46:24;100646.88;;;12.81;nan
20942;BME280;10630;53.734;10.282;2022-11-15T05:48:51;100651.78;;;12.78;nan
20942;BME280;10630;53.734;10.282;2022-11-15T05:51:22;100645.50;;;12.71;nan
20942;BME280;10630;53.734;10.282;2022-11-15T05:53:48;100639.97;;;12.72;nan
20942;BME280;10630;53.734;10.282;2022-11-15T05:56:17;100645.47;;;12.41;nan
20942;BME280;10630;53.734;10.282;2022-11-15T05:58:44;100645.88;;;12.68;nan
20942;BME280;10630;53.734;10.282;2022-11-15T06:01:12;100660.25;;;12.96;nan
20942;BME280;10630;53.734;10.282;2022-11-15T06:03:38;100647.19;;;13.02;nan
20942;BME280;10630;53.734;10.282;2022-11-15T06:06:05;100650.66;;;13.17;nan
20942;BME280;10630;53.734;10.282;2022-11-15T06:08:33;100657.22;;;12.85;nan
20942;BME280;10630;53.734;10.282;2022-11-15T06:11:06;100654.00;;;12.36;nan
20942;BME280;10630;53.734;10.282;2022-11-15T06:13:34;100650.19;;;12.69;nan
20942;BME280;10630;53.734;10.282;2022-11-15T06:16:02;100656.47;;;12.91;nan
20942;BME280;10630;53.734;10.282;2022-11-15T06:18:31;100655.72;;;12.67;nan
20942;BME280;10630;53.734;10.282;2022-11-15T06:20:59;100659.06;;;12.99;nan
20942;BME280;10630;53.734;10.282;2022-11-15T06:23:26;100657.78;;;12.95;nan
20942;BME280;10630;53.734;10.282;2022-11-15T06:25:53;100667.91;;;12.85;nan
20942;BME280;10630;53.734;10.282;2022-11-15T06:28:20;100671.22;;;12.33;nan
20942;BME280;10630;53.734;10.282;2022-11-15T06:30:47;100669.91;;;12.82;nan
20942;BME280;10630;53.734;10.282;2022-11-15T06:33:18;100665.44;;;13.13;nan
20942;BME280;10630;53.734;10.282;2022-11-15T06:35:45;100664.50;;;13.21;nan
20942;BME280;10630;53.734;10.282;2022-11-15T06:38:12;100667.44;;;13.11;nan
20942;BME280;10630;53.734;10.282;2022-11-15T06:40:40;100680.44;;;13.29;nan
20942;BME280;10630;53.734;10.282;2022-11-15T06:43:07;100671.84;;;13.34;nan
20942;BME280;10630;53.734;10.282;2022-11-15T06:45:34;100674.16;;;13.22;nan
20942;BME280;10630;53.734;10.282;2022-11-15T06:48:00;100678.81;;;13.43;nan
20942;BME280;10630;53.734;10.282;2022-11-15T06:50:27;100675.38;;;13.19;nan
20942;BME280;10630;53.734;10.282;2022-11-15T06:52:54;100678.59;;;12.99;nan
20942;BME280;10630;53.734;10.282;2022-11-15T06:55:21;100686.88;;;13.35;nan
20942;BME280;10630;53.734;10.282;2022-11-15T06:57:48;100688.66;;;13.27;nan
20942;BME280;10630;53.734;10.282;2022-11-15T07:00:16;100688.41;;;12.84;nan
20942;BME280;10630;53.734;10.282;2022-11-15T07:02:43;100696.84;;;13.11;nan
20942;BME280;10630;53.734;10.282;2022-11-15T07:05:11;100687.78;;;13.27;nan
20942;BME280;10630;53.734;10.282;2022-11-15T07:07:39;100696.94;;;13.03;nan
20942;BME280;10630;53.734;10.282;2022-11-15T07:10:06;100693.81;;;13.14;nan
20942;BME280;10630;53.734;10.282;2022-11-15T07:12:33;100696.66;;;12.97;nan
20942;BME280;10630;53.734;10.282;2022-11-15T07:15:00;100691.09;;;12.69;nan
20942;BME280;10630;53.734;10.282;2022-11-15T07:17:26;100697.66;;;12.96;nan
20942;BME280;10630;53.734;10.282;2022-11-15T07:19:53;100692.34;;;12.58;nan
20942;BME280;10630;53.734;10.282;2022-11-15T07:22:20;100699.97;;;13.14;nan
20942;BME280;10630;53.734;10.282;2022-11-15T07:24:46;100691.31;;;13.27;nan
20942;BME280;10630;53.734;10.282;2022-11-15T07:27:13;100692.84;;;13.07;nan
20942;BME280;10630;53.734;10.282;2022-11-15T07:29:39;100703.00;;;13.56;nan
20942;BME280;10630;53.734;10.282;2022-11-15T07:32:06;100704.13;;;13.62;nan
20942;BME280;10630;53.734;10.282;2022-11-15T07:34:33;100710.13;;;13.19;nan
20942;BME280;10630;53.734;10.282;2022-11-15T07:37:00;100711.72;;;13.80;nan
20942;BME280;10630;53.734;10.282;2022-11-15T07:39:26;100711.28;;;13.61;nan
20942;BME280;10630;53.734;10.282;2022-11-15T07:41:55;100706.59;;;14.00;nan
20942;BME280;10630;53.734;10.282;2022-11-15T07:44:41;100716.75;;;14.05;nan
20942;BME280;10630;53.734;10.282;2022-11-15T07:47:08;100711.69;;;13.95;nan
20942;BME280;10630;53.734;10.282;2022-11-15T07:49:34;100714.91;;;13.54;nan
20942;BME280;10630;53.734;10.282;2022-11-15T07:52:01;100713.81;;;13.63;nan
20942;BME280;10630;53.734;10.282;2022-11-15T07:54:27;100709.13;;;13.50;nan
20942;BME280;10630;53.734;10.282;2022-11-15T07:56:55;100711.47;;;13.75;nan
20942;BME280;10630;53.734;10.282;2022-11-15T07:59:23;100711.50;;;13.30;nan
20942;BME280;10630;53.734;10.282;2022-11-15T08:01:49;100718.75;;;13.81;nan
20942;BME280;10630;53.734;10.282;2022-11-15T08:04:16;100714.63;;;13.64;nan
20942;BME280;10630;53.734;10.282;2022-11-15T08:06:43;100706.78;;;13.99;nan
20942;BME280;10630;53.734;10.282;2022-11-15T08:09:10;100715.00;;;13.97;nan
20942;BME280;10630;53.734;10.282;2022-11-15T08:11:37;100705.44;;;13.88;nan
20942;BME280;10630;53.734;10.282;2022-11-15T08:14:03;100703.31;;;13.83;nan
20942;BME280;10630;53.734;10.282;2022-11-15T08:16:30;100694.25;;;13.63;nan
20942;BME280;10630;53.734;10.282;2022-11-15T08:18:57;100705.53;;;13.80;nan
20942;BME280;10630;53.734;10.282;2022-11-15T08:21:23;100703.16;;;13.70;nan
20942;BME280;10630;53.734;10.282;2022-11-15T08:23:51;100701.81;;;14.39;nan
20942;BME280;10630;53.734;10.282;2022-11-15T08:26:18;100702.03;;;13.79;nan
20942;BME280;10630;53.734;10.282;2022-11-15T08:28:44;100705.75;;;13.78;nan
20942;BME280;10630;53.734;10.282;2022-11-15T08:31:15;100704.69;;;13.94;nan
20942;BME280;10630;53.734;10.282;2022-11-15T08:33:44;100696.84;;;13.92;nan
20942;BME280;10630;53.734;10.282;2022-11-15T08:36:14;100703.16;;;13.85;nan
20942;BME280;10630;53.734;10.282;2022-11-15T08:38:41;100699.16;;;13.96;nan
20942;BME280;10630;53.734;10.282;2022-11-15T08:41:09;100704.38;;;14.04;nan
20942;BME280;10630;53.734;10.282;2022-11-15T08:43:38;100706.53;;;14.37;nan
20942;BME280;10630;53.734;10.282;2022-11-15T08:46:14;100709.50;;;13.84;nan
20942;BME280;10630;53.734;10.282;2022-11-15T08:48:40;100706.41;;;14.23;nan
20942;BME280;10630;53.734;10.282;2022-11-15T08:51:08;100700.91;;;14.53;nan
20942;BME280;10630;53.734;10.282;2022-11-15T08:53:35;100707.31;;;14.31;nan
20942;BME280;10630;53.734;10.282;2022-11-15T08:56:01;100703.31;;;13.83;nan
20942;BME280;10630;53.734;10.282;2022-11-15T08:58:28;100703.63;;;14.10;nan
20942;BME280;10630;53.734;10.282;2022-11-15T09:00:56;100699.94;;;14.11;nan
20942;BME280;10630;53.734;10.282;2022-11-15T09:03:22;100701.50;;;14.27;nan
20942;BME280;10630;53.734;10.282;2022-11-15T09:05:53;100706.84;;;14.27;nan
20942;BME280;10630;53.734;10.282;2022-11-15T09:08:20;100696.41;;;14.54;nan
20942;BME280;10630;53.734;10.282;2022-11-15T09:11:08;100701.84;;;14.17;nan
20942;BME280;10630;53.734;10.282;2022-11-15T09:13:35;100701.38;;;14.35;nan
20942;BME280;10630;53.734;10.282;2022-11-15T09:16:05;100700.03;;;14.68;nan
20942;BME280;10630;53.734;10.282;2022-11-15T09:18:32;100700.03;;;14.24;nan
20942;BME280;10630;53.734;10.282;2022-11-15T09:20:59;100698.75;;;14.64;nan
20942;BME280;10630;53.734;10.282;2022-11-15T09:23:26;100689.81;;;14.78;nan
20942;BME280;10630;53.734;10.282;2022-11-15T09:25:57;100692.63;;;14.48;nan
20942;BME280;10630;53.734;10.282;2022-11-15T09:28:27;100685.63;;;14.69;nan
20942;BME280;10630;53.734;10.282;2022-11-15T09:30:57;100691.47;;;14.79;nan
20942;BME280;10630;53.734;10.282;2022-11-15T09:33:25;100687.66;;;15.37;nan
20942;BME280;10630;53.734;10.282;2022-11-15T09:35:59;100690.75;;;14.99;nan
20942;BME280;10630;53.734;10.282;2022-11-15T09:38:26;100706.75;;;14.85;nan
20942;BME280;10630;53.734;10.282;2022-11-15T09:43:39;100714.84;;;15.27;nan
20942;BME280;10630;53.734;10.282;2022-11-15T09:51:25;100700.56;;;15.55;nan
20942;BME280;10630;53.734;10.282;2022-11-15T09:59:47;100696.34;;;15.32;nan
20942;BME280;10630;53.734;10.282;2022-11-15T10:04:48;100693.53;;;15.61;nan
20942;BME280;10630;53.734;10.282;2022-11-15T10:09:52;100693.50;;;15.47;nan
20942;BME280;10630;53.734;10.282;2022-11-15T10:12:19;100687.94;;;15.49;nan
20942;BME280;10630;53.734;10.282;2022-11-15T10:14:48;100687.75;;;15.57;nan
20942;BME280;10630;53.734;10.282;2022-11-15T10:22:44;100691.69;;;14.84;nan
20942;BME280;10630;53.734;10.282;2022-11-15T10:30:38;100688.13;;;15.47;nan
20942;BME280;10630;53.734;10.282;2022-11-15T10:38:54;100681.16;;;15.60;nan
20942;BME280;10630;53.734;10.282;2022-11-15T10:41:22;100674.91;;;16.01;nan
20942;BME280;10630;53.734;10.282;2022-11-15T10:46:39;100662.75;;;16.19;nan
20942;BME280;10630;53.734;10.282;2022-11-15T10:49:15;100649.53;;;16.24;nan
20942;BME280;10630;53.734;10.282;2022-11-15T10:51:43;100646.25;;;16.35;nan
20942;BME280;10630;53.734;10.282;2022-11-15T10:54:11;100640.22;;;16.46;nan
20942;BME280;10630;53.734;10.282;2022-11-15T10:56:43;100645.81;;;16.38;nan
20942;BME280;10630;53.734;10.282;2022-11-15T10:59:16;100646.63;;;16.45;nan
20942;BME280;10630;53.734;10.282;2022-11-15T11:01:47;100647.25;;;16.41;nan
20942;BME280;10630;53.734;10.282;2022-11-15T11:04:14;100647.47;;;16.46;nan
20942;BME280;10630;53.734;10.282;2022-11-15T11:06:54;100650.78;;;16.61;nan
20942;BME280;10630;53.734;10.282;2022-11-15T11:09:23;100640.38;;;16.92;nan
20942;BME280;10630;53.734;10.282;2022-11-15T11:11:53;100643.13;;;16.38;nan
20942;BME280;10630;53.734;10.282;2022-11-15T11:14:25;100639.81;;;16.43;nan
20942;BME280;10630;53.734;10.282;2022-11-15T11:16:54;100637.09;;;16.97;nan
20942;BME280;10630;53.734;10.282;2022-11-15T11:19:35;100635.88;;;16.66;nan
20942;BME280;10630;53.734;10.282;2022-11-15T11:22:26;100625.34;;;16.64;nan
20942;BME280;10630;53.734;10.282;2022-11-15T11:27:42;100628.44;;;16.68;nan
20942;BME280;10630;53.734;10.282;2022-11-15T11:30:45;100629.47;;;16.40;nan
20942;BME280;10630;53.734;10.282;2022-11-15T11:33:20;100619.13;;;16.77;nan
20942;BME280;10630;53.734;10.282;2022-11-15T11:35:58;100616.81;;;16.94;nan
20942;BME280;10630;53.734;10.282;2022-11-15T11:38:34;100615.91;;;17.27;nan
20942;BME280;10630;53.734;10.282;2022-11-15T11:41:14;100612.25;;;17.01;nan
20942;BME280;10630;53.734;10.282;2022-11-15T11:44:06;100611.41;;;17.07;nan
20942;BME280;10630;53.734;10.282;2022-11-15T11:49:14;100607.78;;;17.72;nan
20942;BME280;10630;53.734;10.282;2022-11-15T11:51:49;100604.97;;;17.61;nan
20942;BME280;10630;53.734;10.282;2022-11-15T11:54:25;100603.44;;;17.33;nan
20942;BME280;10630;53.734;10.282;2022-11-15T11:56:54;100595.84;;;17.62;nan
20942;BME280;10630;53.734;10.282;2022-11-15T12:01:54;100586.41;;;17.46;nan
20942;BME280;10630;53.734;10.282;2022-11-15T12:04:24;100579.97;;;17.08;nan
20942;BME280;10630;53.734;10.282;2022-11-15T12:16:55;100581.63;;;17.48;nan
20942;BME280;10630;53.734;10.282;2022-11-15T12:19:22;100582.31;;;18.07;nan
20942;BME280;10630;53.734;10.282;2022-11-15T12:22:00;100579.69;;;17.23;nan
20942;BME280;10630;53.734;10.282;2022-11-15T12:24:30;100582.97;;;17.64;nan
20942;BME280;10630;53.734;10.282;2022-11-15T12:27:13;100577.78;;;17.30;nan
20942;BME280;10630;53.734;10.282;2022-11-15T12:29:46;100583.09;;;17.76;nan
20942;BME280;10630;53.734;10.282;2022-11-15T12:32:34;100576.13;;;17.68;nan
20942;BME280;10630;53.734;10.282;2022-11-15T12:35:02;100579.69;;;17.62;nan
20942;BME280;10630;53.734;10.282;2022-11-15T12:45:49;100561.56;;;17.76;nan
20942;BME280;10630;53.734;10.282;2022-11-15T12:58:41;100542.59;;;18.21;nan
20942;BME280;10630;53.734;10.282;2022-11-15T13:01:10;100541.91;;;18.07;nan
20942;BME280;10630;53.734;10.282;2022-11-15T13:03:58;100542.94;;;18.06;nan
20942;BME280;10630;53.734;10.282;2022-11-15T13:06:34;100542.38;;;17.97;nan
20942;BME280;10630;53.734;10.282;2022-11-15T13:09:02;100541.13;;;18.25;nan
20942;BME280;10630;53.734;10.282;2022-11-15T13:11:47;100548.38;;;17.99;nan
20942;BME280;10630;53.734;10.282;2022-11-15T13:16:59;100539.13;;;17.88;nan
20942;BME280;10630;53.734;10.282;2022-11-15T13:19:27;100530.75;;;18.03;nan
20942;BME280;10630;53.734;10.282;2022-11-15T13:21:53;100529.88;;;18.10;nan
20942;BME280;10630;53.734;10.282;2022-11-15T13:24:38;100527.88;;;18.24;nan
20942;BME280;10630;53.734;10.282;2022-11-15T13:27:15;100523.50;;;18.04;nan
20942;BME280;10630;53.734;10.282;2022-11-15T13:29:43;100529.69;;;18.04;nan
20942;BME280;10630;53.734;10.282;2022-11-15T13:32:13;100525.66;;;17.88;nan
20942;BME280;10630;53.734;10.282;2022-11-15T13:34:48;100518.06;;;18.29;nan
20942;BME280;10630;53.734;10.282;2022-11-15T13:37:39;100518.25;;;18.34;nan
20942;BME280;10630;53.734;10.282;2022-11-15T13:40:38;100507.25;;;17.60;nan
20942;BME280;10630;53.734;10.282;2022-11-15T13:42:57;100517.81;;;17.87;nan
20942;BME280;10630;53.734;10.282;2022-11-15T13:45:24;100506.75;;;18.39;nan
20942;BME280;10630;53.734;10.282;2022-11-15T13:47:53;100496.00;;;18.58;nan
20942;BME280;10630;53.734;10.282;2022-11-15T13:50:27;100501.28;;;18.83;nan
20942;BME280;10630;53.734;10.282;2022-11-15T13:52:56;100501.47;;;18.70;nan
20942;BME280;10630;53.734;10.282;2022-11-15T13:55:26;100501.78;;;18.43;nan
20942;BME280;10630;53.734;10.282;2022-11-15T13:58:00;100501.00;;;18.17;nan
20942;BME280;10630;53.734;10.282;2022-11-15T14:00:34;100503.94;;;18.53;nan
20942;BME280;10630;53.734;10.282;2022-11-15T14:03:06;100499.97;;;18.18;nan
20942;BME280;10630;53.734;10.282;2022-11-15T14:05:36;100504.59;;;18.29;nan
20942;BME280;10630;53.734;10.282;2022-11-15T14:08:11;100487.53;;;18.54;nan
20942;BME280;10630;53.734;10.282;2022-11-15T14:10:41;100476.44;;;19.00;nan
20942;BME280;10630;53.734;10.282;2022-11-15T14:13:27;100477.34;;;18.93;nan
20942;BME280;10630;53.734;10.282;2022-11-15T14:15:54;100480.50;;;18.72;nan
20942;BME280;10630;53.734;10.282;2022-11-15T14:21:11;100483.19;;;18.53;nan
20942;BME280;10630;53.734;10.282;2022-11-15T14:23:38;100486.50;;;18.18;nan
20942;BME280;10630;53.734;10.282;2022-11-15T14:26:10;100473.75;;;18.81;nan
20942;BME280;10630;53.734;10.282;2022-11-15T14:28:42;100480.09;;;18.87;nan
20942;BME280;10630;53.734;10.282;2022-11-15T14:31:11;100475.56;;;18.69;nan
20942;BME280;10630;53.734;10.282;2022-11-15T14:33:39;100460.59;;;18.35;nan
20942;BME280;10630;53.734;10.282;2022-11-15T14:36:16;100462.38;;;18.79;nan
20942;BME280;10630;53.734;10.282;2022-11-15T14:38:44;100468.84;;;18.03;nan
20942;BME280;10630;53.734;10.282;2022-11-15T14:41:18;100469.13;;;18.51;nan
20942;BME280;10630;53.734;10.282;2022-11-15T14:43:45;100473.78;;;18.25;nan
20942;BME280;10630;53.734;10.282;2022-11-15T14:46:12;100469.25;;;18.00;nan
20942;BME280;10630;53.734;10.282;2022-11-15T14:48:41;100468.69;;;18.17;nan
20942;BME280;10630;53.734;10.282;2022-11-15T14:51:14;100473.38;;;18.03;nan
20942;BME280;10630;53.734;10.282;2022-11-15T14:53:42;100474.75;;;17.87;nan
20942;BME280;10630;53.734;10.282;2022-11-15T14:56:10;100474.91;;;18.36;nan
20942;BME280;10630;53.734;10.282;2022-11-15T14:58:36;100475.94;;;17.91;nan
20942;BME280;10630;53.734;10.282;2022-11-15T15:01:10;100469.78;;;17.84;nan
20942;BME280;10630;53.734;10.282;2022-11-15T15:03:40;100473.16;;;17.22;nan
20942;BME280;10630;53.734;10.282;2022-11-15T15:06:08;100475.69;;;17.49;nan
20942;BME280;10630;53.734;10.282;2022-11-15T15:08:40;100479.41;;;17.73;nan
20942;BME280;10630;53.734;10.282;2022-11-15T15:11:10;100474.38;;;18.09;nan
20942;BME280;10630;53.734;10.282;2022-11-15T15:13:37;100478.84;;;17.96;nan